sensor_id;sensor_type;location;lat;lon;timestamp;temperature;humidity
23073;DHT22;67971;51.046;3.732;2023-04-19T00:01:49;11.70;99.90
23073;DHT22;67971;51.046;3.732;2023-04-19T00:04:15;11.60;99.90
23073;DHT22;67971;51.046;3.732;2023-04-19T00:06:40;11.60;99.90
23073;DHT22;67971;51.046;3.732;2023-04-19T00:09:07;11.60;99.90
23073;DHT22;67971;51.046;3.732;2023-04-19T00:11:33;11.60;99.90
23073;DHT22;67971;51.046;3.732;2023-04-19T00:13:58;11.70;99.90
23073;DHT22;67971;51.046;3.732;2023-04-19T00:16:24;11.60;99.90
23073;DHT22;67971;51.046;3.732;2023-04-19T00:18:50;11.60;99.90
23073;DHT22;67971;51.046;3.732;2023-04-19T00:21:16;11.50;99.90
23073;DHT22;67971;51.046;3.732;2023-04-19T00:23:41;11.40;99.90
23073;DHT22;67971;51.046;3.732;2023-04-19T00:26:07;11.30;99.90
23073;DHT22;67971;51.046;3.732;2023-04-19T00:28:33;11.40;99.90
23073;DHT22;67971;51.046;3.732;2023-04-19T00:30:59;11.40;99.90
23073;DHT22;67971;51.046;3.732;2023-04-19T00:33:25;11.40;99.90
23073;DHT22;67971;51.046;3.732;2023-04-19T00:35:50;11.40;99.90
23073;DHT22;67971;51.046;3.732;2023-04-19T00:38:16;11.20;99.90
23073;DHT22;67971;51.046;3.732;2023-04-19T00:40:42;11.10;99.90
23073;DHT22;67971;51.046;3.732;2023-04-19T00:43:07;11.20;99.90
23073;DHT22;67971;51.046;3.732;2023-04-19T00:45:34;11.30;99.90
23073;DHT22;67971;51.046;3.732;2023-04-19T00:48:01;11.30;99.90
23073;DHT22;67971;51.046;3.732;2023-04-19T00:50:27;11.10;99.90
23073;DHT22;67971;51.046;3.732;2023-04-19T00:52:53;11.10;99.90
23073;DHT22;67971;51.046;3.732;2023-04-19T00:55:20;11.00;99.90
23073;DHT22;67971;51.046;3.732;2023-04-19T00:57:47;10.90;99.90
23073;DHT22;67971;51.046;3.732;2023-04-19T01:00:13;10.90;99.90
23073;DHT22;67971;51.046;3.732;2023-04-19T01:02:39;11.00;99.90
23073;DHT22;67971;51.046;3.732;2023-04-19T01:05:05;11.10;99.90
23073;DHT22;67971;51.046;3.732;2023-04-19T01:07:32;11.00;99.90
23073;DHT22;67971;51.046;3.732;2023-04-19T01:09:59;11.10;99.90
23073;DHT22;67971;51.046;3.732;2023-04-19T01:12:25;11.10;99.90
23073;DHT22;67971;51.046;3.732;2023-04-19T01:14:51;11.00;99.90
23073;DHT22;67971;51.046;3.732;2023-04-19T01:17:17;10.90;99.90
23073;DHT22;67971;51.046;3.732;2023-04-19T01:19:43;10.70;99.90
23073;DHT22;67971;51.046;3.732;2023-04-19T01:22:09;10.60;99.90
23073;DHT22;67971;51.046;3.732;2023-04-19T01:24:35;10.60;99.90
23073;DHT22;67971;51.046;3.732;2023-04-19T01:27:00;10.70;99.90
23073;DHT22;67971;51.046;3.732;2023-04-19T01:29:26;10.70;99.90
23073;DHT22;67971;51.046;3.732;2023-04-19T01:31:52;10.70;99.90
23073;DHT22;67971;51.046;3.732;2023-04-19T01:34:18;10.80;99.90
23073;DHT22;67971;51.046;3.732;2023-04-19T01:36:44;10.90;99.90
23073;DHT22;67971;51.046;3.732;2023-04-19T01:39:10;10.80;99.90
23073;DHT22;67971;51.046;3.732;2023-04-19T01:41:36;10.90;99.90
23073;DHT22;67971;51.046;3.732;2023-04-19T01:44:02;10.90;99.90
23073;DHT22;67971;51.046;3.732;2023-04-19T01:46:28;10.80;99.90
23073;DHT22;67971;51.046;3.732;2023-04-19T01:48:53;10.80;99.90
23073;DHT22;67971;51.046;3.732;2023-04-19T01:51:19;10.70;99.90
23073;DHT22;67971;51.046;3.732;2023-04-19T01:53:46;10.80;99.90
23073;DHT22;67971;51.046;3.732;2023-04-19T01:56:17;10.70;99.90
23073;DHT22;67971;51.046;3.732;2023-04-19T01:58:42;10.50;99.90
23073;DHT22;67971;51.046;3.732;2023-04-19T02:01:08;10.40;99.90
23073;DHT22;67971;51.046;3.732;2023-04-19T02:03:37;10.40;99.90
23073;DHT22;67971;51.046;3.732;2023-04-19T02:06:03;10.40;99.90
23073;DHT22;67971;51.046;3.732;2023-04-19T02:08:28;10.40;99.90
23073;DHT22;67971;51.046;3.732;2023-04-19T02:10:54;10.20;99.90
23073;DHT22;67971;51.046;3.732;2023-04-19T02:13:20;10.10;99.90
23073;DHT22;67971;51.046;3.732;2023-04-19T02:15:46;10.10;99.90
23073;DHT22;67971;51.046;3.732;2023-04-19T02:18:11;10.20;99.90
23073;DHT22;67971;51.046;3.732;2023-04-19T02:20:38;10.30;99.90
23073;DHT22;67971;51.046;3.732;2023-04-19T02:23:03;10.30;99.90
23073;DHT22;67971;51.046;3.732;2023-04-19T02:25:29;10.30;99.90
23073;DHT22;67971;51.046;3.732;2023-04-19T02:27:55;10.30;99.90
23073;DHT22;67971;51.046;3.732;2023-04-19T02:30:21;10.20;99.90
23073;DHT22;67971;51.046;3.732;2023-04-19T02:32:48;10.20;99.90
23073;DHT22;67971;51.046;3.732;2023-04-19T02:35:13;10.10;99.90
23073;DHT22;67971;51.046;3.732;2023-04-19T02:37:39;10.20;99.90
23073;DHT22;67971;51.046;3.732;2023-04-19T02:40:06;10.30;99.90
23073;DHT22;67971;51.046;3.732;2023-04-19T02:42:32;10.40;99.90
23073;DHT22;67971;51.046;3.732;2023-04-19T02:44:57;10.30;99.90
23073;DHT22;67971;51.046;3.732;2023-04-19T02:47:23;10.20;99.90
23073;DHT22;67971;51.046;3.732;2023-04-19T02:49:49;10.20;99.90
23073;DHT22;67971;51.046;3.732;2023-04-19T02:52:14;10.20;99.90
23073;DHT22;67971;51.046;3.732;2023-04-19T02:54:40;10.00;99.90
23073;DHT22;67971;51.046;3.732;2023-04-19T02:57:06;10.10;99.90
23073;DHT22;67971;51.046;3.732;2023-04-19T02:59:31;10.10;99.90
23073;DHT22;67971;51.046;3.732;2023-04-19T03:01:57;10.20;99.90
23073;DHT22;67971;51.046;3.732;2023-04-19T03:04:22;10.30;99.90
23073;DHT22;67971;51.046;3.732;2023-04-19T03:06:48;10.20;99.90
23073;DHT22;67971;51.046;3.732;2023-04-19T03:09:14;10.00;99.90
23073;DHT22;67971;51.046;3.732;2023-04-19T03:11:39;10.00;99.90
23073;DHT22;67971;51.046;3.732;2023-04-19T03:14:05;10.10;99.90
23073;DHT22;67971;51.046;3.732;2023-04-19T03:16:31;10.30;99.90
23073;DHT22;67971;51.046;3.732;2023-04-19T03:18:56;10.30;99.90
23073;DHT22;67971;51.046;3.732;2023-04-19T03:21:22;10.40;99.90
23073;DHT22;67971;51.046;3.732;2023-04-19T03:23:52;10.50;99.90
23073;DHT22;67971;51.046;3.732;2023-04-19T03:26:17;10.60;99.90
23073;DHT22;67971;51.046;3.732;2023-04-19T03:28:43;10.60;99.90
23073;DHT22;67971;51.046;3.732;2023-04-19T03:31:09;10.70;99.90
23073;DHT22;67971;51.046;3.732;2023-04-19T03:33:34;10.70;99.90
23073;DHT22;67971;51.046;3.732;2023-04-19T03:36:00;10.90;99.90
23073;DHT22;67971;51.046;3.732;2023-04-19T03:38:26;11.00;99.90
23073;DHT22;67971;51.046;3.732;2023-04-19T03:40:51;11.10;99.90
23073;DHT22;67971;51.046;3.732;2023-04-19T03:43:17;11.20;99.90
23073;DHT22;67971;51.046;3.732;2023-04-19T03:45:43;11.30;99.90
23073;DHT22;67971;51.046;3.732;2023-04-19T03:48:08;11.40;99.90
23073;DHT22;67971;51.046;3.732;2023-04-19T03:50:34;11.50;99.90
23073;DHT22;67971;51.046;3.732;2023-04-19T03:53:00;11.30;99.90
23073;DHT22;67971;51.046;3.732;2023-04-19T03:55:27;11.30;99.90
23073;DHT22;67971;51.046;3.732;2023-04-19T03:57:53;11.20;99.90
23073;DHT22;67971;51.046;3.732;2023-04-19T04:00:19;11.30;99.90
23073;DHT22;67971;51.046;3.732;2023-04-19T04:02:44;11.40;99.90
23073;DHT22;67971;51.046;3.732;2023-04-19T04:05:10;11.50;99.90
23073;DHT22;67971;51.046;3.732;2023-04-19T04:07:36;11.60;99.90
23073;DHT22;67971;51.046;3.732;2023-04-19T04:10:01;11.70;99.90
23073;DHT22;67971;51.046;3.732;2023-04-19T04:12:27;11.70;99.90
23073;DHT22;67971;51.046;3.732;2023-04-19T04:14:53;11.70;99.90
23073;DHT22;67971;51.046;3.732;2023-04-19T04:17:18;11.50;99.90
23073;DHT22;67971;51.046;3.732;2023-04-19T04:19:44;11.40;99.90
23073;DHT22;67971;51.046;3.732;2023-04-19T04:22:10;11.40;99.90
23073;DHT22;67971;51.046;3.732;2023-04-19T04:24:39;11.40;99.90
23073;DHT22;67971;51.046;3.732;2023-04-19T04:27:06;11.50;99.90
23073;DHT22;67971;51.046;3.732;2023-04-19T04:29:38;11.60;99.90
23073;DHT22;67971;51.046;3.732;2023-04-19T04:32:07;11.60;99.90
23073;DHT22;67971;51.046;3.732;2023-04-19T04:34:35;11.30;99.90
23073;DHT22;67971;51.046;3.732;2023-04-19T04:37:02;11.30;99.90
23073;DHT22;67971;51.046;3.732;2023-04-19T04:39:28;11.40;99.90
23073;DHT22;67971;51.046;3.732;2023-04-19T04:41:54;11.30;99.90
23073;DHT22;67971;51.046;3.732;2023-04-19T04:44:22;11.50;99.90
23073;DHT22;67971;51.046;3.732;2023-04-19T04:46:48;11.60;99.90
23073;DHT22;67971;51.046;3.732;2023-04-19T04:49:14;11.60;99.90
23073;DHT22;67971;51.046;3.732;2023-04-19T04:51:39;11.60;99.90
23073;DHT22;67971;51.046;3.732;2023-04-19T04:54:05;11.70;99.90
23073;DHT22;67971;51.046;3.732;2023-04-19T04:56:31;11.80;99.90
23073;DHT22;67971;51.046;3.732;2023-04-19T04:58:56;11.70;99.90
23073;DHT22;67971;51.046;3.732;2023-04-19T05:01:22;11.70;99.90
23073;DHT22;67971;51.046;3.732;2023-04-19T05:03:49;11.70;99.90
23073;DHT22;67971;51.046;3.732;2023-04-19T05:06:15;11.80;99.90
23073;DHT22;67971;51.046;3.732;2023-04-19T05:08:41;11.90;99.90
23073;DHT22;67971;51.046;3.732;2023-04-19T05:11:06;12.00;99.90
23073;DHT22;67971;51.046;3.732;2023-04-19T05:13:33;12.10;99.90
23073;DHT22;67971;51.046;3.732;2023-04-19T05:15:58;12.10;99.90
23073;DHT22;67971;51.046;3.732;2023-04-19T05:18:24;12.10;99.90
23073;DHT22;67971;51.046;3.732;2023-04-19T05:20:50;12.00;99.90
23073;DHT22;67971;51.046;3.732;2023-04-19T05:23:15;12.00;99.90
23073;DHT22;67971;51.046;3.732;2023-04-19T05:25:41;12.10;99.90
23073;DHT22;67971;51.046;3.732;2023-04-19T05:28:07;12.10;99.90
23073;DHT22;67971;51.046;3.732;2023-04-19T05:30:32;12.20;99.90
23073;DHT22;67971;51.046;3.732;2023-04-19T05:32:58;12.20;99.90
23073;DHT22;67971;51.046;3.732;2023-04-19T05:35:24;12.20;99.90
23073;DHT22;67971;51.046;3.732;2023-04-19T05:37:50;12.10;99.90
23073;DHT22;67971;51.046;3.732;2023-04-19T05:40:16;12.10;99.90
23073;DHT22;67971;51.046;3.732;2023-04-19T05:42:42;12.30;99.90
23073;DHT22;67971;51.046;3.732;2023-04-19T05:45:08;12.40;99.90
23073;DHT22;67971;51.046;3.732;2023-04-19T05:47:34;12.50;99.90
23073;DHT22;67971;51.046;3.732;2023-04-19T05:50:00;12.50;99.90
23073;DHT22;67971;51.046;3.732;2023-04-19T05:52:25;12.60;99.90
23073;DHT22;67971;51.046;3.732;2023-04-19T05:54:51;12.60;99.90
23073;DHT22;67971;51.046;3.732;2023-04-19T05:57:17;12.70;99.90
23073;DHT22;67971;51.046;3.732;2023-04-19T05:59:42;12.70;99.90
23073;DHT22;67971;51.046;3.732;2023-04-19T06:02:09;12.60;99.90
23073;DHT22;67971;51.046;3.732;2023-04-19T06:04:35;12.50;99.90
23073;DHT22;67971;51.046;3.732;2023-04-19T06:07:00;12.40;99.90
23073;DHT22;67971;51.046;3.732;2023-04-19T06:09:26;12.40;99.90
23073;DHT22;67971;51.046;3.732;2023-04-19T06:11:52;12.40;99.90
23073;DHT22;67971;51.046;3.732;2023-04-19T06:14:19;12.50;99.90
23073;DHT22;67971;51.046;3.732;2023-04-19T06:16:45;12.50;99.90
23073;DHT22;67971;51.046;3.732;2023-04-19T06:19:11;12.50;99.90
23073;DHT22;67971;51.046;3.732;2023-04-19T06:21:36;12.50;99.90
23073;DHT22;67971;51.046;3.732;2023-04-19T06:24:02;12.50;99.90
23073;DHT22;67971;51.046;3.732;2023-04-19T06:26:28;12.60;99.90
23073;DHT22;67971;51.046;3.732;2023-04-19T06:28:55;12.80;99.90
23073;DHT22;67971;51.046;3.732;2023-04-19T06:31:20;13.00;99.90
23073;DHT22;67971;51.046;3.732;2023-04-19T06:33:46;13.20;99.90
23073;DHT22;67971;51.046;3.732;2023-04-19T06:36:12;13.40;99.90
23073;DHT22;67971;51.046;3.732;2023-04-19T06:38:37;13.50;99.90
23073;DHT22;67971;51.046;3.732;2023-04-19T06:41:05;13.50;99.90
23073;DHT22;67971;51.046;3.732;2023-04-19T06:43:31;13.50;99.90
23073;DHT22;67971;51.046;3.732;2023-04-19T06:45:58;13.60;99.90
23073;DHT22;67971;51.046;3.732;2023-04-19T06:48:23;13.70;99.90
23073;DHT22;67971;51.046;3.732;2023-04-19T06:50:49;13.80;99.90
23073;DHT22;67971;51.046;3.732;2023-04-19T06:53:14;13.70;99.90
23073;DHT22;67971;51.046;3.732;2023-04-19T06:55:40;13.90;99.90
23073;DHT22;67971;51.046;3.732;2023-04-19T06:58:06;14.10;99.90
23073;DHT22;67971;51.046;3.732;2023-04-19T07:00:36;14.00;99.90
23073;DHT22;67971;51.046;3.732;2023-04-19T07:03:02;13.80;99.90
23073;DHT22;67971;51.046;3.732;2023-04-19T07:05:28;14.00;99.90
23073;DHT22;67971;51.046;3.732;2023-04-19T07:07:54;14.10;99.90
23073;DHT22;67971;51.046;3.732;2023-04-19T07:10:20;14.30;99.90
23073;DHT22;67971;51.046;3.732;2023-04-19T07:12:45;14.60;99.90
23073;DHT22;67971;51.046;3.732;2023-04-19T07:15:11;15.40;99.90
23073;DHT22;67971;51.046;3.732;2023-04-19T07:17:37;15.90;99.90
23073;DHT22;67971;51.046;3.732;2023-04-19T07:20:04;16.20;99.90
23073;DHT22;67971;51.046;3.732;2023-04-19T07:22:31;16.10;99.90
23073;DHT22;67971;51.046;3.732;2023-04-19T07:24:57;16.10;99.90
23073;DHT22;67971;51.046;3.732;2023-04-19T07:27:23;16.10;99.90
23073;DHT22;67971;51.046;3.732;2023-04-19T07:29:49;16.00;99.90
23073;DHT22;67971;51.046;3.732;2023-04-19T07:32:15;17.00;99.90
23073;DHT22;67971;51.046;3.732;2023-04-19T07:34:41;18.00;99.90
23073;DHT22;67971;51.046;3.732;2023-04-19T07:37:07;19.70;99.90
23073;DHT22;67971;51.046;3.732;2023-04-19T07:39:33;20.50;99.90
23073;DHT22;67971;51.046;3.732;2023-04-19T07:41:59;21.30;99.90
23073;DHT22;67971;51.046;3.732;2023-04-19T07:44:26;22.10;99.90
23073;DHT22;67971;51.046;3.732;2023-04-19T07:46:51;23.10;99.90
23073;DHT22;67971;51.046;3.732;2023-04-19T07:49:18;22.90;99.90
23073;DHT22;67971;51.046;3.732;2023-04-19T07:51:43;23.40;99.90
23073;DHT22;67971;51.046;3.732;2023-04-19T07:54:09;22.90;99.90
23073;DHT22;67971;51.046;3.732;2023-04-19T07:56:35;23.20;99.90
23073;DHT22;67971;51.046;3.732;2023-04-19T07:59:01;23.20;99.90
23073;DHT22;67971;51.046;3.732;2023-04-19T08:01:29;23.40;99.90
23073;DHT22;67971;51.046;3.732;2023-04-19T08:03:54;23.50;99.90
23073;DHT22;67971;51.046;3.732;2023-04-19T08:06:20;24.10;99.90
23073;DHT22;67971;51.046;3.732;2023-04-19T08:08:46;24.60;99.90
23073;DHT22;67971;51.046;3.732;2023-04-19T08:11:12;24.10;99.90
23073;DHT22;67971;51.046;3.732;2023-04-19T08:13:38;23.10;99.90
23073;DHT22;67971;51.046;3.732;2023-04-19T08:16:04;23.30;99.90
23073;DHT22;67971;51.046;3.732;2023-04-19T08:18:30;24.10;99.90
23073;DHT22;67971;51.046;3.732;2023-04-19T08:20:56;24.60;99.90
23073;DHT22;67971;51.046;3.732;2023-04-19T08:23:22;24.90;99.90
23073;DHT22;67971;51.046;3.732;2023-04-19T08:25:48;25.70;99.90
23073;DHT22;67971;51.046;3.732;2023-04-19T08:28:14;26.30;99.90
23073;DHT22;67971;51.046;3.732;2023-04-19T08:30:40;26.30;99.90
23073;DHT22;67971;51.046;3.732;2023-04-19T08:33:05;26.70;99.90
23073;DHT22;67971;51.046;3.732;2023-04-19T08:35:33;26.10;99.90
23073;DHT22;67971;51.046;3.732;2023-04-19T08:37:59;26.00;99.90
23073;DHT22;67971;51.046;3.732;2023-04-19T08:40:25;26.20;99.90
23073;DHT22;67971;51.046;3.732;2023-04-19T08:42:51;26.10;99.90
23073;DHT22;67971;51.046;3.732;2023-04-19T08:45:18;27.00;99.90
23073;DHT22;67971;51.046;3.732;2023-04-19T08:47:46;27.80;99.90
23073;DHT22;67971;51.046;3.732;2023-04-19T08:50:12;28.00;99.90
23073;DHT22;67971;51.046;3.732;2023-04-19T08:52:38;28.60;99.90
23073;DHT22;67971;51.046;3.732;2023-04-19T08:55:06;28.20;99.50
23073;DHT22;67971;51.046;3.732;2023-04-19T08:57:32;27.50;99.70
23073;DHT22;67971;51.046;3.732;2023-04-19T09:00:00;28.40;99.50
23073;DHT22;67971;51.046;3.732;2023-04-19T09:02:25;29.60;97.90
23073;DHT22;67971;51.046;3.732;2023-04-19T09:04:51;29.70;97.30
23073;DHT22;67971;51.046;3.732;2023-04-19T09:07:24;30.30;97.00
23073;DHT22;67971;51.046;3.732;2023-04-19T09:10:05;30.40;96.20
23073;DHT22;67971;51.046;3.732;2023-04-19T09:12:35;31.00;94.90
23073;DHT22;67971;51.046;3.732;2023-04-19T09:15:03;30.30;93.80
23073;DHT22;67971;51.046;3.732;2023-04-19T09:17:32;29.40;94.50
23073;DHT22;67971;51.046;3.732;2023-04-19T09:19:58;29.70;94.20
23073;DHT22;67971;51.046;3.732;2023-04-19T09:22:24;29.00;94.50
23073;DHT22;67971;51.046;3.732;2023-04-19T09:24:51;28.80;94.40
23073;DHT22;67971;51.046;3.732;2023-04-19T09:27:27;29.20;94.70
23073;DHT22;67971;51.046;3.732;2023-04-19T09:29:58;30.10;93.60
23073;DHT22;67971;51.046;3.732;2023-04-19T09:32:24;30.10;92.90
23073;DHT22;67971;51.046;3.732;2023-04-19T09:34:58;30.50;93.10
23073;DHT22;67971;51.046;3.732;2023-04-19T09:37:24;31.60;91.80
23073;DHT22;67971;51.046;3.732;2023-04-19T09:39:51;32.10;90.60
23073;DHT22;67971;51.046;3.732;2023-04-19T09:42:17;32.30;90.70
23073;DHT22;67971;51.046;3.732;2023-04-19T09:44:57;32.90;90.20
23073;DHT22;67971;51.046;3.732;2023-04-19T09:47:24;31.90;89.50
23073;DHT22;67971;51.046;3.732;2023-04-19T09:50:04;31.30;90.10
23073;DHT22;67971;51.046;3.732;2023-04-19T09:52:32;31.50;90.00
23073;DHT22;67971;51.046;3.732;2023-04-19T09:55:00;31.60;89.80
23073;DHT22;67971;51.046;3.732;2023-04-19T09:57:26;31.80;88.40
23073;DHT22;67971;51.046;3.732;2023-04-19T09:59:52;31.70;88.30
23073;DHT22;67971;51.046;3.732;2023-04-19T10:02:18;32.70;87.60
23073;DHT22;67971;51.046;3.732;2023-04-19T10:04:45;32.10;86.80
23073;DHT22;67971;51.046;3.732;2023-04-19T10:07:11;31.40;85.40
23073;DHT22;67971;51.046;3.732;2023-04-19T10:09:37;31.40;86.40
23073;DHT22;67971;51.046;3.732;2023-04-19T10:12:04;32.20;84.60
23073;DHT22;67971;51.046;3.732;2023-04-19T10:14:33;32.50;83.60
23073;DHT22;67971;51.046;3.732;2023-04-19T10:17:00;31.80;83.50
23073;DHT22;67971;51.046;3.732;2023-04-19T10:19:27;32.30;84.30
23073;DHT22;67971;51.046;3.732;2023-04-19T10:21:53;31.30;83.80
23073;DHT22;67971;51.046;3.732;2023-04-19T10:24:20;31.50;83.20
23073;DHT22;67971;51.046;3.732;2023-04-19T10:27:07;32.00;82.90
23073;DHT22;67971;51.046;3.732;2023-04-19T10:29:54;32.60;82.60
23073;DHT22;67971;51.046;3.732;2023-04-19T10:32:20;32.90;80.50
23073;DHT22;67971;51.046;3.732;2023-04-19T10:34:46;31.00;82.40
23073;DHT22;67971;51.046;3.732;2023-04-19T10:37:15;31.20;85.00
23073;DHT22;67971;51.046;3.732;2023-04-19T10:39:42;31.00;83.30
23073;DHT22;67971;51.046;3.732;2023-04-19T10:42:08;31.40;83.40
23073;DHT22;67971;51.046;3.732;2023-04-19T10:44:34;32.70;81.40
23073;DHT22;67971;51.046;3.732;2023-04-19T10:47:00;33.40;80.00
23073;DHT22;67971;51.046;3.732;2023-04-19T10:49:27;33.10;78.10
23073;DHT22;67971;51.046;3.732;2023-04-19T10:51:53;32.60;80.70
23073;DHT22;67971;51.046;3.732;2023-04-19T10:54:32;33.10;79.90
23073;DHT22;67971;51.046;3.732;2023-04-19T10:57:02;33.50;77.60
23073;DHT22;67971;51.046;3.732;2023-04-19T10:59:31;33.40;78.10
23073;DHT22;67971;51.046;3.732;2023-04-19T11:01:59;33.40;77.40
23073;DHT22;67971;51.046;3.732;2023-04-19T11:07:04;32.80;79.30
23073;DHT22;67971;51.046;3.732;2023-04-19T11:09:36;32.60;78.60
23073;DHT22;67971;51.046;3.732;2023-04-19T11:12:22;33.20;76.00
23073;DHT22;67971;51.046;3.732;2023-04-19T11:14:57;33.90;74.50
23073;DHT22;67971;51.046;3.732;2023-04-19T11:17:31;34.20;76.30
23073;DHT22;67971;51.046;3.732;2023-04-19T11:19:59;34.20;75.70
23073;DHT22;67971;51.046;3.732;2023-04-19T11:22:32;33.60;75.30
23073;DHT22;67971;51.046;3.732;2023-04-19T11:25:11;32.60;75.40
23073;DHT22;67971;51.046;3.732;2023-04-19T11:27:40;32.20;75.40
23073;DHT22;67971;51.046;3.732;2023-04-19T11:30:19;32.30;76.20
23073;DHT22;67971;51.046;3.732;2023-04-19T11:32:54;33.80;76.80
23073;DHT22;67971;51.046;3.732;2023-04-19T11:35:24;35.90;73.20
23073;DHT22;67971;51.046;3.732;2023-04-19T11:37:53;34.40;70.50
23073;DHT22;67971;51.046;3.732;2023-04-19T11:40:20;34.00;73.60
23073;DHT22;67971;51.046;3.732;2023-04-19T11:42:58;34.00;74.20
23073;DHT22;67971;51.046;3.732;2023-04-19T11:45:28;34.20;70.80
23073;DHT22;67971;51.046;3.732;2023-04-19T11:47:55;33.00;73.20
23073;DHT22;67971;51.046;3.732;2023-04-19T11:50:41;32.30;74.10
23073;DHT22;67971;51.046;3.732;2023-04-19T11:53:15;32.30;74.20
23073;DHT22;67971;51.046;3.732;2023-04-19T11:55:49;33.40;73.90
23073;DHT22;67971;51.046;3.732;2023-04-19T11:58:24;33.50;71.60
23073;DHT22;67971;51.046;3.732;2023-04-19T12:00:51;31.10;73.10
23073;DHT22;67971;51.046;3.732;2023-04-19T12:03:22;32.10;74.90
23073;DHT22;67971;51.046;3.732;2023-04-19T12:08:37;31.70;73.40
23073;DHT22;67971;51.046;3.732;2023-04-19T12:11:04;30.70;73.90
23073;DHT22;67971;51.046;3.732;2023-04-19T12:13:31;31.20;73.00
23073;DHT22;67971;51.046;3.732;2023-04-19T12:15:59;31.70;73.00
23073;DHT22;67971;51.046;3.732;2023-04-19T12:18:26;31.50;73.30
23073;DHT22;67971;51.046;3.732;2023-04-19T12:20:54;31.50;71.80
23073;DHT22;67971;51.046;3.732;2023-04-19T12:23:20;32.60;69.70
23073;DHT22;67971;51.046;3.732;2023-04-19T12:25:47;34.40;68.50
23073;DHT22;67971;51.046;3.732;2023-04-19T12:28:14;35.00;66.50
23073;DHT22;67971;51.046;3.732;2023-04-19T12:30:41;35.10;65.10
23073;DHT22;67971;51.046;3.732;2023-04-19T12:33:07;34.00;66.60
23073;DHT22;67971;51.046;3.732;2023-04-19T12:35:33;34.20;65.70
23073;DHT22;67971;51.046;3.732;2023-04-19T12:38:00;35.30;64.80
23073;DHT22;67971;51.046;3.732;2023-04-19T12:40:27;35.50;63.50
23073;DHT22;67971;51.046;3.732;2023-04-19T12:42:53;35.90;62.10
23073;DHT22;67971;51.046;3.732;2023-04-19T12:45:19;36.10;62.00
23073;DHT22;67971;51.046;3.732;2023-04-19T12:47:46;35.70;60.90
23073;DHT22;67971;51.046;3.732;2023-04-19T12:50:14;35.80;61.00
23073;DHT22;67971;51.046;3.732;2023-04-19T12:52:41;35.70;61.00
23073;DHT22;67971;51.046;3.732;2023-04-19T12:55:07;36.20;59.80
23073;DHT22;67971;51.046;3.732;2023-04-19T12:57:33;35.50;58.70
23073;DHT22;67971;51.046;3.732;2023-04-19T12:59:59;35.00;59.60
23073;DHT22;67971;51.046;3.732;2023-04-19T13:02:24;33.60;60.30
23073;DHT22;67971;51.046;3.732;2023-04-19T13:04:50;34.70;60.70
23073;DHT22;67971;51.046;3.732;2023-04-19T13:07:16;35.30;59.30
23073;DHT22;67971;51.046;3.732;2023-04-19T13:09:41;35.30;57.50
23073;DHT22;67971;51.046;3.732;2023-04-19T13:12:07;34.50;57.90
23073;DHT22;67971;51.046;3.732;2023-04-19T13:14:33;34.60;58.20
23073;DHT22;67971;51.046;3.732;2023-04-19T13:16:58;34.10;57.70
23073;DHT22;67971;51.046;3.732;2023-04-19T13:19:24;34.20;58.30
23073;DHT22;67971;51.046;3.732;2023-04-19T13:21:51;34.60;57.40
23073;DHT22;67971;51.046;3.732;2023-04-19T13:24:17;34.70;55.30
23073;DHT22;67971;51.046;3.732;2023-04-19T13:26:42;33.70;56.00
23073;DHT22;67971;51.046;3.732;2023-04-19T13:29:10;33.20;56.60
23073;DHT22;67971;51.046;3.732;2023-04-19T13:31:36;33.60;55.50
23073;DHT22;67971;51.046;3.732;2023-04-19T13:34:02;34.20;56.10
23073;DHT22;67971;51.046;3.732;2023-04-19T13:36:28;33.50;54.40
23073;DHT22;67971;51.046;3.732;2023-04-19T13:38:54;32.40;54.70
23073;DHT22;67971;51.046;3.732;2023-04-19T13:41:20;32.80;55.50
23073;DHT22;67971;51.046;3.732;2023-04-19T13:43:46;33.40;55.10
23073;DHT22;67971;51.046;3.732;2023-04-19T13:46:12;34.00;53.80
23073;DHT22;67971;51.046;3.732;2023-04-19T13:48:38;33.60;54.70
23073;DHT22;67971;51.046;3.732;2023-04-19T13:51:04;33.90;54.40
23073;DHT22;67971;51.046;3.732;2023-04-19T13:53:30;34.20;52.80
23073;DHT22;67971;51.046;3.732;2023-04-19T13:55:56;34.30;53.60
23073;DHT22;67971;51.046;3.732;2023-04-19T13:58:21;34.20;52.50
23073;DHT22;67971;51.046;3.732;2023-04-19T14:00:49;32.80;53.30
23073;DHT22;67971;51.046;3.732;2023-04-19T14:03:15;32.40;53.40
23073;DHT22;67971;51.046;3.732;2023-04-19T14:05:42;33.00;52.40
23073;DHT22;67971;51.046;3.732;2023-04-19T14:08:07;33.50;52.80
23073;DHT22;67971;51.046;3.732;2023-04-19T14:10:34;33.30;53.00
23073;DHT22;67971;51.046;3.732;2023-04-19T14:12:59;33.20;50.80
23073;DHT22;67971;51.046;3.732;2023-04-19T14:15:25;32.90;52.60
23073;DHT22;67971;51.046;3.732;2023-04-19T14:17:51;33.10;53.10
23073;DHT22;67971;51.046;3.732;2023-04-19T14:20:17;32.30;49.90
23073;DHT22;67971;51.046;3.732;2023-04-19T14:22:44;32.30;50.70
23073;DHT22;67971;51.046;3.732;2023-04-19T14:25:11;31.90;50.60
23073;DHT22;67971;51.046;3.732;2023-04-19T14:27:39;32.20;51.40
23073;DHT22;67971;51.046;3.732;2023-04-19T14:30:06;32.50;51.20
23073;DHT22;67971;51.046;3.732;2023-04-19T14:32:32;32.30;49.90
23073;DHT22;67971;51.046;3.732;2023-04-19T14:34:58;32.70;50.20
23073;DHT22;67971;51.046;3.732;2023-04-19T14:37:24;33.40;51.10
23073;DHT22;67971;51.046;3.732;2023-04-19T14:39:49;33.00;51.00
23073;DHT22;67971;51.046;3.732;2023-04-19T14:42:15;32.40;51.00
23073;DHT22;67971;51.046;3.732;2023-04-19T14:44:41;32.70;50.60
23073;DHT22;67971;51.046;3.732;2023-04-19T14:47:06;32.90;50.40
23073;DHT22;67971;51.046;3.732;2023-04-19T14:49:32;32.20;50.10
23073;DHT22;67971;51.046;3.732;2023-04-19T14:51:58;32.70;51.00
23073;DHT22;67971;51.046;3.732;2023-04-19T14:54:23;32.30;50.50
23073;DHT22;67971;51.046;3.732;2023-04-19T14:56:49;32.30;50.60
23073;DHT22;67971;51.046;3.732;2023-04-19T14:59:15;32.50;48.90
23073;DHT22;67971;51.046;3.732;2023-04-19T15:01:40;31.80;49.70
23073;DHT22;67971;51.046;3.732;2023-04-19T15:04:06;31.70;51.70
23073;DHT22;67971;51.046;3.732;2023-04-19T15:06:33;32.60;50.20
23073;DHT22;67971;51.046;3.732;2023-04-19T15:08:59;31.50;49.70
23073;DHT22;67971;51.046;3.732;2023-04-19T15:11:24;32.20;49.80
23073;DHT22;67971;51.046;3.732;2023-04-19T15:13:50;31.70;50.40
23073;DHT22;67971;51.046;3.732;2023-04-19T15:16:16;31.40;51.50
23073;DHT22;67971;51.046;3.732;2023-04-19T15:18:42;31.50;50.60
23073;DHT22;67971;51.046;3.732;2023-04-19T15:21:07;30.80;51.50
23073;DHT22;67971;51.046;3.732;2023-04-19T15:23:33;30.50;51.20
23073;DHT22;67971;51.046;3.732;2023-04-19T15:25:58;31.00;51.90
23073;DHT22;67971;51.046;3.732;2023-04-19T15:28:24;31.40;51.50
23073;DHT22;67971;51.046;3.732;2023-04-19T15:31:01;31.30;51.10
23073;DHT22;67971;51.046;3.732;2023-04-19T15:33:27;30.80;50.60